sensor_id;sensor_type;location;lat;lon;timestamp;P1;durP1;ratioP1;P2;durP2;ratioP2
75639;SDS011;64233;51.486;6.332;2023-04-03T00:00:47;3.75;;;2.80;;
75639;SDS011;64233;51.486;6.332;2023-04-03T00:03:14;4.63;;;2.80;;
75639;SDS011;64233;51.486;6.332;2023-04-03T00:05:39;8.98;;;3.50;;
75639;SDS011;64233;51.486;6.332;2023-04-03T00:08:05;4.28;;;3.10;;
75639;SDS011;64233;51.486;6.332;2023-04-03T00:10:32;2.78;;;2.28;;
75639;SDS011;64233;51.486;6.332;2023-04-03T00:12:58;3.67;;;2.58;;
75639;SDS011;64233;51.486;6.332;2023-04-03T00:15:23;3.92;;;3.00;;
75639;SDS011;64233;51.486;6.332;2023-04-03T00:17:49;4.05;;;2.83;;
75639;SDS011;64233;51.486;6.332;2023-04-03T00:20:14;3.05;;;2.42;;
75639;SDS011;64233;51.486;6.332;2023-04-03T00:22:40;4.65;;;3.03;;
75639;SDS011;64233;51.486;6.332;2023-04-03T00:25:05;4.97;;;3.58;;
75639;SDS011;64233;51.486;6.332;2023-04-03T00:27:31;13.27;;;5.45;;
75639;SDS011;64233;51.486;6.332;2023-04-03T00:29:56;5.28;;;4.78;;
75639;SDS011;64233;51.486;6.332;2023-04-03T00:32:21;7.07;;;4.47;;
75639;SDS011;64233;51.486;6.332;2023-04-03T00:34:47;9.48;;;4.85;;
75639;SDS011;64233;51.486;6.332;2023-04-03T00:37:12;6.78;;;4.55;;
75639;SDS011;64233;51.486;6.332;2023-04-03T00:39:37;6.57;;;5.03;;
75639;SDS011;64233;51.486;6.332;2023-04-03T00:42:03;10.07;;;6.13;;
75639;SDS011;64233;51.486;6.332;2023-04-03T00:46:53;7.97;;;5.40;;
75639;SDS011;64233;51.486;6.332;2023-04-03T00:49:18;13.98;;;5.65;;
75639;SDS011;64233;51.486;6.332;2023-04-03T00:51:44;9.23;;;5.68;;
75639;SDS011;64233;51.486;6.332;2023-04-03T00:54:10;9.63;;;5.75;;
75639;SDS011;64233;51.486;6.332;2023-04-03T00:56:37;7.35;;;5.05;;
75639;SDS011;64233;51.486;6.332;2023-04-03T00:59:07;14.82;;;5.97;;
75639;SDS011;64233;51.486;6.332;2023-04-03T01:01:39;12.98;;;5.43;;
75639;SDS011;64233;51.486;6.332;2023-04-03T01:04:05;7.97;;;4.88;;
75639;SDS011;64233;51.486;6.332;2023-04-03T01:06:32;6.00;;;4.72;;
75639;SDS011;64233;51.486;6.332;2023-04-03T01:09:00;9.85;;;5.10;;
75639;SDS011;64233;51.486;6.332;2023-04-03T01:11:26;6.75;;;3.88;;
75639;SDS011;64233;51.486;6.332;2023-04-03T01:13:51;8.20;;;4.70;;
75639;SDS011;64233;51.486;6.332;2023-04-03T01:16:17;6.30;;;3.78;;
75639;SDS011;64233;51.486;6.332;2023-04-03T01:18:43;3.42;;;2.55;;
75639;SDS011;64233;51.486;6.332;2023-04-03T01:24:03;5.85;;;2.75;;
75639;SDS011;64233;51.486;6.332;2023-04-03T01:26:31;7.63;;;3.42;;
75639;SDS011;64233;51.486;6.332;2023-04-03T01:28:58;5.82;;;3.90;;
75639;SDS011;64233;51.486;6.332;2023-04-03T01:31:25;4.10;;;3.10;;
75639;SDS011;64233;51.486;6.332;2023-04-03T01:33:53;4.38;;;3.33;;
75639;SDS011;64233;51.486;6.332;2023-04-03T01:36:24;8.73;;;2.22;;
75639;SDS011;64233;51.486;6.332;2023-04-03T01:38:51;6.05;;;2.53;;
75639;SDS011;64233;51.486;6.332;2023-04-03T01:41:18;3.83;;;2.65;;
75639;SDS011;64233;51.486;6.332;2023-04-03T01:43:45;4.20;;;2.20;;
75639;SDS011;64233;51.486;6.332;2023-04-03T01:46:11;4.20;;;3.05;;
75639;SDS011;64233;51.486;6.332;2023-04-03T01:48:36;5.80;;;2.92;;
75639;SDS011;64233;51.486;6.332;2023-04-03T01:51:01;2.83;;;2.08;;
75639;SDS011;64233;51.486;6.332;2023-04-03T01:53:27;4.55;;;2.95;;
75639;SDS011;64233;51.486;6.332;2023-04-03T01:55:52;6.75;;;3.05;;
75639;SDS011;64233;51.486;6.332;2023-04-03T01:58:17;8.65;;;1.70;;
75639;SDS011;64233;51.486;6.332;2023-04-03T02:00:43;2.20;;;2.00;;
75639;SDS011;64233;51.486;6.332;2023-04-03T02:03:08;2.13;;;1.95;;
75639;SDS011;64233;51.486;6.332;2023-04-03T02:05:33;7.15;;;2.20;;
75639;SDS011;64233;51.486;6.332;2023-04-03T02:07:59;2.85;;;2.53;;
75639;SDS011;64233;51.486;6.332;2023-04-03T02:10:25;2.60;;;2.00;;
75639;SDS011;64233;51.486;6.332;2023-04-03T02:12:50;4.75;;;2.35;;
75639;SDS011;64233;51.486;6.332;2023-04-03T02:15:15;8.38;;;2.85;;
75639;SDS011;64233;51.486;6.332;2023-04-03T02:17:41;4.05;;;2.35;;
75639;SDS011;64233;51.486;6.332;2023-04-03T02:20:07;2.83;;;2.00;;
75639;SDS011;64233;51.486;6.332;2023-04-03T02:22:32;3.45;;;1.60;;
75639;SDS011;64233;51.486;6.332;2023-04-03T02:25:05;1.67;;;1.58;;
75639;SDS011;64233;51.486;6.332;2023-04-03T02:27:37;1.65;;;1.50;;
75639;SDS011;64233;51.486;6.332;2023-04-03T02:30:03;3.38;;;1.88;;
75639;SDS011;64233;51.486;6.332;2023-04-03T02:32:29;4.40;;;1.23;;
75639;SDS011;64233;51.486;6.332;2023-04-03T02:34:54;1.33;;;1.23;;
75639;SDS011;64233;51.486;6.332;2023-04-03T02:37:20;2.03;;;1.55;;
75639;SDS011;64233;51.486;6.332;2023-04-03T02:39:46;2.97;;;1.63;;
75639;SDS011;64233;51.486;6.332;2023-04-03T02:42:11;3.03;;;1.27;;
75639;SDS011;64233;51.486;6.332;2023-04-03T02:44:36;3.13;;;1.98;;
75639;SDS011;64233;51.486;6.332;2023-04-03T02:47:02;2.72;;;1.75;;
75639;SDS011;64233;51.486;6.332;2023-04-03T02:49:27;4.40;;;1.73;;
75639;SDS011;64233;51.486;6.332;2023-04-03T02:51:53;2.13;;;1.30;;
75639;SDS011;64233;51.486;6.332;2023-04-03T02:54:18;3.00;;;1.85;;
75639;SDS011;64233;51.486;6.332;2023-04-03T02:56:43;1.67;;;1.58;;
75639;SDS011;64233;51.486;6.332;2023-04-03T02:59:09;1.33;;;1.23;;
75639;SDS011;64233;51.486;6.332;2023-04-03T03:01:34;7.80;;;1.70;;
75639;SDS011;64233;51.486;6.332;2023-04-03T03:04:00;6.70;;;1.45;;
75639;SDS011;64233;51.486;6.332;2023-04-03T03:06:26;1.30;;;1.17;;
75639;SDS011;64233;51.486;6.332;2023-04-03T03:08:51;2.00;;;1.25;;
75639;SDS011;64233;51.486;6.332;2023-04-03T03:11:17;1.52;;;1.40;;
75639;SDS011;64233;51.486;6.332;2023-04-03T03:13:42;1.02;;;1.02;;
75639;SDS011;64233;51.486;6.332;2023-04-03T03:16:07;2.13;;;1.90;;
75639;SDS011;64233;51.486;6.332;2023-04-03T03:18:33;5.10;;;1.80;;
75639;SDS011;64233;51.486;6.332;2023-04-03T03:21:00;1.50;;;1.17;;
75639;SDS011;64233;51.486;6.332;2023-04-03T03:23:27;3.05;;;1.38;;
75639;SDS011;64233;51.486;6.332;2023-04-03T03:26:01;0.98;;;0.90;;
75639;SDS011;64233;51.486;6.332;2023-04-03T03:28:28;1.47;;;1.30;;
75639;SDS011;64233;51.486;6.332;2023-04-03T03:30:54;1.52;;;0.80;;
75639;SDS011;64233;51.486;6.332;2023-04-03T03:33:26;1.58;;;1.10;;
75639;SDS011;64233;51.486;6.332;2023-04-03T03:35:58;1.02;;;1.02;;
75639;SDS011;64233;51.486;6.332;2023-04-03T03:38:24;3.00;;;1.50;;
75639;SDS011;64233;51.486;6.332;2023-04-03T03:40:50;1.92;;;1.05;;
75639;SDS011;64233;51.486;6.332;2023-04-03T03:43:16;1.08;;;0.98;;
75639;SDS011;64233;51.486;6.332;2023-04-03T03:45:41;4.72;;;1.27;;
75639;SDS011;64233;51.486;6.332;2023-04-03T03:48:07;1.02;;;0.90;;
75639;SDS011;64233;51.486;6.332;2023-04-03T03:50:33;3.22;;;1.70;;
75639;SDS011;64233;51.486;6.332;2023-04-03T03:52:59;1.98;;;0.55;;
75639;SDS011;64233;51.486;6.332;2023-04-03T03:55:25;1.02;;;0.82;;
75639;SDS011;64233;51.486;6.332;2023-04-03T03:57:51;2.45;;;1.98;;
75639;SDS011;64233;51.486;6.332;2023-04-03T04:00:16;1.52;;;1.42;;
75639;SDS011;64233;51.486;6.332;2023-04-03T04:02:42;1.02;;;0.88;;
75639;SDS011;64233;51.486;6.332;2023-04-03T04:05:08;1.42;;;1.10;;
75639;SDS011;64233;51.486;6.332;2023-04-03T04:07:33;0.38;;;0.38;;
75639;SDS011;64233;51.486;6.332;2023-04-03T04:09:58;0.90;;;0.68;;
75639;SDS011;64233;51.486;6.332;2023-04-03T04:12:24;0.40;;;0.40;;
75639;SDS011;64233;51.486;6.332;2023-04-03T04:14:49;0.75;;;0.65;;
75639;SDS011;64233;51.486;6.332;2023-04-03T04:17:14;0.43;;;0.43;;
75639;SDS011;64233;51.486;6.332;2023-04-03T04:19:40;2.45;;;1.08;;
75639;SDS011;64233;51.486;6.332;2023-04-03T04:22:05;0.65;;;0.65;;
75639;SDS011;64233;51.486;6.332;2023-04-03T04:24:30;2.05;;;1.65;;
75639;SDS011;64233;51.486;6.332;2023-04-03T04:26:55;3.88;;;1.38;;
75639;SDS011;64233;51.486;6.332;2023-04-03T04:29:21;0.68;;;0.68;;
75639;SDS011;64233;51.486;6.332;2023-04-03T04:31:46;0.75;;;0.68;;
75639;SDS011;64233;51.486;6.332;2023-04-03T04:34:11;2.05;;;0.80;;
75639;SDS011;64233;51.486;6.332;2023-04-03T04:36:38;2.00;;;1.17;;
75639;SDS011;64233;51.486;6.332;2023-04-03T04:39:03;1.33;;;1.23;;
75639;SDS011;64233;51.486;6.332;2023-04-03T04:41:29;1.55;;;0.90;;
75639;SDS011;64233;51.486;6.332;2023-04-03T04:43:54;1.35;;;1.00;;
75639;SDS011;64233;51.486;6.332;2023-04-03T04:46:19;1.27;;;0.82;;
75639;SDS011;64233;51.486;6.332;2023-04-03T04:48:45;2.22;;;1.35;;
75639;SDS011;64233;51.486;6.332;2023-04-03T04:51:10;1.52;;;1.00;;
75639;SDS011;64233;51.486;6.332;2023-04-03T04:53:36;2.45;;;1.05;;
75639;SDS011;64233;51.486;6.332;2023-04-03T04:56:02;0.75;;;0.75;;
75639;SDS011;64233;51.486;6.332;2023-04-03T04:58:27;5.85;;;1.55;;
75639;SDS011;64233;51.486;6.332;2023-04-03T05:01:05;1.88;;;0.73;;
75639;SDS011;64233;51.486;6.332;2023-04-03T05:03:31;1.10;;;1.00;;
75639;SDS011;64233;51.486;6.332;2023-04-03T05:05:57;1.52;;;1.35;;
75639;SDS011;64233;51.486;6.332;2023-04-03T05:08:30;1.83;;;1.33;;
75639;SDS011;64233;51.486;6.332;2023-04-03T05:10:56;1.00;;;0.70;;
75639;SDS011;64233;51.486;6.332;2023-04-03T05:13:21;4.80;;;0.60;;
75639;SDS011;64233;51.486;6.332;2023-04-03T05:15:47;0.43;;;0.43;;
75639;SDS011;64233;51.486;6.332;2023-04-03T05:18:12;0.47;;;0.47;;
75639;SDS011;64233;51.486;6.332;2023-04-03T05:20:38;1.10;;;0.95;;
75639;SDS011;64233;51.486;6.332;2023-04-03T05:23:03;0.35;;;0.35;;
75639;SDS011;64233;51.486;6.332;2023-04-03T05:25:28;3.92;;;1.58;;
75639;SDS011;64233;51.486;6.332;2023-04-03T05:27:54;1.00;;;0.82;;
75639;SDS011;64233;51.486;6.332;2023-04-03T05:30:20;0.75;;;0.75;;
75639;SDS011;64233;51.486;6.332;2023-04-03T05:32:45;1.23;;;0.75;;
75639;SDS011;64233;51.486;6.332;2023-04-03T05:35:10;2.47;;;1.08;;
75639;SDS011;64233;51.486;6.332;2023-04-03T05:37:36;0.85;;;0.85;;
75639;SDS011;64233;51.486;6.332;2023-04-03T05:40:02;1.52;;;1.00;;
75639;SDS011;64233;51.486;6.332;2023-04-03T05:42:28;0.70;;;0.70;;
75639;SDS011;64233;51.486;6.332;2023-04-03T05:44:54;0.52;;;0.45;;
75639;SDS011;64233;51.486;6.332;2023-04-03T05:47:19;0.40;;;0.40;;
75639;SDS011;64233;51.486;6.332;2023-04-03T05:49:45;0.30;;;0.30;;
75639;SDS011;64233;51.486;6.332;2023-04-03T05:52:21;5.18;;;1.10;;
75639;SDS011;64233;51.486;6.332;2023-04-03T05:57:21;3.77;;;1.17;;
75639;SDS011;64233;51.486;6.332;2023-04-03T05:59:47;1.67;;;1.08;;
75639;SDS011;64233;51.486;6.332;2023-04-03T06:02:14;1.30;;;1.20;;
75639;SDS011;64233;51.486;6.332;2023-04-03T06:04:44;3.03;;;2.83;;
75639;SDS011;64233;51.486;6.332;2023-04-03T06:07:14;1.17;;;1.10;;
75639;SDS011;64233;51.486;6.332;2023-04-03T06:09:42;3.60;;;1.05;;
75639;SDS011;64233;51.486;6.332;2023-04-03T06:12:07;1.10;;;1.00;;
75639;SDS011;64233;51.486;6.332;2023-04-03T06:14:33;6.07;;;1.90;;
75639;SDS011;64233;51.486;6.332;2023-04-03T06:16:58;4.28;;;1.48;;
75639;SDS011;64233;51.486;6.332;2023-04-03T06:19:24;1.73;;;1.38;;
75639;SDS011;64233;51.486;6.332;2023-04-03T06:21:50;2.10;;;1.45;;
75639;SDS011;64233;51.486;6.332;2023-04-03T06:24:16;1.27;;;0.85;;
75639;SDS011;64233;51.486;6.332;2023-04-03T06:26:43;0.40;;;0.40;;
75639;SDS011;64233;51.486;6.332;2023-04-03T06:29:08;8.98;;;1.80;;
75639;SDS011;64233;51.486;6.332;2023-04-03T06:31:34;1.20;;;0.65;;
75639;SDS011;64233;51.486;6.332;2023-04-03T06:33:59;0.40;;;0.40;;
75639;SDS011;64233;51.486;6.332;2023-04-03T06:36:25;3.28;;;0.70;;
75639;SDS011;64233;51.486;6.332;2023-04-03T06:38:50;1.40;;;1.17;;
75639;SDS011;64233;51.486;6.332;2023-04-03T06:41:16;8.63;;;2.50;;
75639;SDS011;64233;51.486;6.332;2023-04-03T06:43:42;2.80;;;1.10;;
75639;SDS011;64233;51.486;6.332;2023-04-03T06:46:14;3.30;;;1.92;;
75639;SDS011;64233;51.486;6.332;2023-04-03T06:48:44;0.43;;;0.43;;
75639;SDS011;64233;51.486;6.332;2023-04-03T06:51:28;1.13;;;0.93;;
75639;SDS011;64233;51.486;6.332;2023-04-03T06:53:55;0.63;;;0.63;;
75639;SDS011;64233;51.486;6.332;2023-04-03T06:56:22;2.17;;;1.33;;
75639;SDS011;64233;51.486;6.332;2023-04-03T06:58:48;5.35;;;1.30;;
75639;SDS011;64233;51.486;6.332;2023-04-03T07:01:15;0.70;;;0.70;;
75639;SDS011;64233;51.486;6.332;2023-04-03T07:03:41;0.60;;;0.60;;
75639;SDS011;64233;51.486;6.332;2023-04-03T07:06:07;2.47;;;1.40;;
75639;SDS011;64233;51.486;6.332;2023-04-03T07:08:36;1.23;;;0.63;;
75639;SDS011;64233;51.486;6.332;2023-04-03T07:11:01;8.27;;;1.98;;
75639;SDS011;64233;51.486;6.332;2023-04-03T07:13:27;3.58;;;1.13;;
75639;SDS011;64233;51.486;6.332;2023-04-03T07:15:52;3.92;;;1.48;;
75639;SDS011;64233;51.486;6.332;2023-04-03T07:18:18;1.23;;;1.10;;
75639;SDS011;64233;51.486;6.332;2023-04-03T07:20:43;3.40;;;1.15;;
75639;SDS011;64233;51.486;6.332;2023-04-03T07:23:09;2.15;;;0.77;;
75639;SDS011;64233;51.486;6.332;2023-04-03T07:25:35;1.58;;;1.27;;
75639;SDS011;64233;51.486;6.332;2023-04-03T07:28:00;2.35;;;1.15;;
75639;SDS011;64233;51.486;6.332;2023-04-03T07:30:26;1.10;;;0.75;;
75639;SDS011;64233;51.486;6.332;2023-04-03T07:32:52;2.85;;;1.48;;
75639;SDS011;64233;51.486;6.332;2023-04-03T07:35:17;2.15;;;0.47;;
75639;SDS011;64233;51.486;6.332;2023-04-03T07:37:42;2.63;;;1.05;;
75639;SDS011;64233;51.486;6.332;2023-04-03T07:40:08;0.75;;;0.75;;
75639;SDS011;64233;51.486;6.332;2023-04-03T07:42:34;5.45;;;1.45;;
75639;SDS011;64233;51.486;6.332;2023-04-03T07:45:00;1.02;;;0.70;;
75639;SDS011;64233;51.486;6.332;2023-04-03T07:47:25;0.90;;;0.80;;
75639;SDS011;64233;51.486;6.332;2023-04-03T07:49:51;0.90;;;0.70;;
75639;SDS011;64233;51.486;6.332;2023-04-03T07:52:16;0.70;;;0.70;;
75639;SDS011;64233;51.486;6.332;2023-04-03T07:54:41;1.08;;;0.85;;
75639;SDS011;64233;51.486;6.332;2023-04-03T07:57:07;1.98;;;1.05;;
75639;SDS011;64233;51.486;6.332;2023-04-03T07:59:32;1.35;;;1.25;;
75639;SDS011;64233;51.486;6.332;2023-04-03T08:01:58;0.77;;;0.43;;
75639;SDS011;64233;51.486;6.332;2023-04-03T08:04:23;2.70;;;1.02;;
75639;SDS011;64233;51.486;6.332;2023-04-03T08:06:48;4.55;;;1.23;;
75639;SDS011;64233;51.486;6.332;2023-04-03T08:09:17;4.60;;;1.85;;
75639;SDS011;64233;51.486;6.332;2023-04-03T08:11:43;1.40;;;1.02;;
75639;SDS011;64233;51.486;6.332;2023-04-03T08:14:09;1.02;;;0.98;;
75639;SDS011;64233;51.486;6.332;2023-04-03T08:16:40;5.43;;;1.13;;
75639;SDS011;64233;51.486;6.332;2023-04-03T08:19:05;1.83;;;0.82;;
75639;SDS011;64233;51.486;6.332;2023-04-03T08:21:32;1.98;;;1.42;;
75639;SDS011;64233;51.486;6.332;2023-04-03T08:23:57;1.08;;;0.93;;
75639;SDS011;64233;51.486;6.332;2023-04-03T08:26:23;3.10;;;1.58;;
75639;SDS011;64233;51.486;6.332;2023-04-03T08:28:48;1.75;;;0.60;;
75639;SDS011;64233;51.486;6.332;2023-04-03T08:31:15;1.52;;;1.42;;
75639;SDS011;64233;51.486;6.332;2023-04-03T08:33:43;3.47;;;1.08;;
75639;SDS011;64233;51.486;6.332;2023-04-03T08:36:17;0.52;;;0.43;;
75639;SDS011;64233;51.486;6.332;2023-04-03T08:38:53;1.25;;;1.08;;
75639;SDS011;64233;51.486;6.332;2023-04-03T08:41:29;2.50;;;1.08;;
75639;SDS011;64233;51.486;6.332;2023-04-03T08:46:47;1.98;;;0.70;;
75639;SDS011;64233;51.486;6.332;2023-04-03T08:52:00;2.08;;;0.68;;
75639;SDS011;64233;51.486;6.332;2023-04-03T08:54:32;1.80;;;0.85;;
75639;SDS011;64233;51.486;6.332;2023-04-03T08:57:00;0.77;;;0.70;;
75639;SDS011;64233;51.486;6.332;2023-04-03T08:59:29;1.02;;;0.93;;
75639;SDS011;64233;51.486;6.332;2023-04-03T09:01:59;0.80;;;0.80;;
75639;SDS011;64233;51.486;6.332;2023-04-03T09:04:30;0.55;;;0.40;;
75639;SDS011;64233;51.486;6.332;2023-04-03T09:06:59;0.30;;;0.30;;
75639;SDS011;64233;51.486;6.332;2023-04-03T09:09:40;1.27;;;0.77;;
75639;SDS011;64233;51.486;6.332;2023-04-03T09:12:15;1.63;;;0.55;;
75639;SDS011;64233;51.486;6.332;2023-04-03T09:15:10;1.70;;;0.47;;
75639;SDS011;64233;51.486;6.332;2023-04-03T09:20:49;2.60;;;0.68;;
75639;SDS011;64233;51.486;6.332;2023-04-03T09:23:55;0.43;;;0.40;;
75639;SDS011;64233;51.486;6.332;2023-04-03T09:26:24;0.85;;;0.65;;
75639;SDS011;64233;51.486;6.332;2023-04-03T09:28:56;0.70;;;0.45;;
75639;SDS011;64233;51.486;6.332;2023-04-03T09:31:36;1.02;;;0.73;;
75639;SDS011;64233;51.486;6.332;2023-04-03T09:34:06;0.90;;;0.60;;
75639;SDS011;64233;51.486;6.332;2023-04-03T09:36:59;0.38;;;0.38;;
75639;SDS011;64233;51.486;6.332;2023-04-03T09:39:30;0.40;;;0.40;;
75639;SDS011;64233;51.486;6.332;2023-04-03T09:41:59;0.80;;;0.40;;
75639;SDS011;64233;51.486;6.332;2023-04-03T09:44:36;0.57;;;0.57;;
75639;SDS011;64233;51.486;6.332;2023-04-03T09:47:45;1.10;;;0.57;;
75639;SDS011;64233;51.486;6.332;2023-04-03T09:52:45;2.25;;;0.50;;
75639;SDS011;64233;51.486;6.332;2023-04-03T09:57:43;0.30;;;0.30;;
75639;SDS011;64233;51.486;6.332;2023-04-03T10:00:20;3.47;;;0.32;;
75639;SDS011;64233;51.486;6.332;2023-04-03T10:02:46;0.50;;;0.50;;
75639;SDS011;64233;51.486;6.332;2023-04-03T10:05:48;2.05;;;0.57;;
75639;SDS011;64233;51.486;6.332;2023-04-03T10:10:39;0.45;;;0.40;;
75639;SDS011;64233;51.486;6.332;2023-04-03T10:13:18;0.50;;;0.50;;
75639;SDS011;64233;51.486;6.332;2023-04-03T10:15:48;1.90;;;0.73;;
75639;SDS011;64233;51.486;6.332;2023-04-03T10:20:47;1.27;;;0.50;;
75639;SDS011;64233;51.486;6.332;2023-04-03T10:25:57;0.45;;;0.45;;
75639;SDS011;64233;51.486;6.332;2023-04-03T10:28:38;2.38;;;0.57;;
75639;SDS011;64233;51.486;6.332;2023-04-03T10:31:18;0.85;;;0.70;;
75639;SDS011;64233;51.486;6.332;2023-04-03T10:34:05;0.93;;;0.60;;
75639;SDS011;64233;51.486;6.332;2023-04-03T10:36:38;0.95;;;0.85;;
75639;SDS011;64233;51.486;6.332;2023-04-03T10:47:46;1.10;;;0.57;;
75639;SDS011;64233;51.486;6.332;2023-04-03T10:53:01;0.63;;;0.63;;
75639;SDS011;64233;51.486;6.332;2023-04-03T10:55:40;0.45;;;0.40;;
75639;SDS011;64233;51.486;6.332;2023-04-03T10:58:35;3.03;;;0.60;;
75639;SDS011;64233;51.486;6.332;2023-04-03T11:01:08;1.65;;;0.60;;
75639;SDS011;64233;51.486;6.332;2023-04-03T11:03:38;2.17;;;0.68;;
75639;SDS011;64233;51.486;6.332;2023-04-03T11:06:15;0.38;;;0.38;;
75639;SDS011;64233;51.486;6.332;2023-04-03T11:08:57;0.35;;;0.35;;
75639;SDS011;64233;51.486;6.332;2023-04-03T11:11:46;0.35;;;0.30;;
75639;SDS011;64233;51.486;6.332;2023-04-03T11:14:14;1.55;;;0.60;;
75639;SDS011;64233;51.486;6.332;2023-04-03T11:16:53;0.77;;;0.30;;
75639;SDS011;64233;51.486;6.332;2023-04-03T11:25:08;5.78;;;0.80;;
75639;SDS011;64233;51.486;6.332;2023-04-03T11:27:54;0.50;;;0.40;;
75639;SDS011;64233;51.486;6.332;2023-04-03T11:30:45;2.40;;;1.10;;
75639;SDS011;64233;51.486;6.332;2023-04-03T11:33:37;0.30;;;0.30;;
75639;SDS011;64233;51.486;6.332;2023-04-03T11:36:09;2.45;;;0.70;;
75639;SDS011;64233;51.486;6.332;2023-04-03T11:38:44;2.22;;;1.00;;
75639;SDS011;64233;51.486;6.332;2023-04-03T11:41:12;2.97;;;0.73;;
75639;SDS011;64233;51.486;6.332;2023-04-03T11:43:40;2.03;;;0.50;;
75639;SDS011;64233;51.486;6.332;2023-04-03T11:55:09;2.22;;;0.90;;
75639;SDS011;64233;51.486;6.332;2023-04-03T12:05:50;1.40;;;0.57;;
75639;SDS011;64233;51.486;6.332;2023-04-03T12:08:27;0.32;;;0.32;;
75639;SDS011;64233;51.486;6.332;2023-04-03T12:11:32;2.78;;;1.13;;
75639;SDS011;64233;51.486;6.332;2023-04-03T12:19:04;3.60;;;1.23;;
75639;SDS011;64233;51.486;6.332;2023-04-03T12:24:25;0.88;;;0.63;;
75639;SDS011;64233;51.486;6.332;2023-04-03T12:40:21;2.17;;;0.95;;
75639;SDS011;64233;51.486;6.332;2023-04-03T12:48:33;2.77;;;0.50;;
75639;SDS011;64233;51.486;6.332;2023-04-03T12:51:03;2.95;;;0.82;;
75639;SDS011;64233;51.486;6.332;2023-04-03T12:53:34;1.42;;;0.68;;
75639;SDS011;64233;51.486;6.332;2023-04-03T12:58:47;0.93;;;0.73;;
75639;SDS011;64233;51.486;6.332;2023-04-03T13:01:15;1.38;;;1.05;;
75639;SDS011;64233;51.486;6.332;2023-04-03T13:03:44;6.72;;;0.63;;
75639;SDS011;64233;51.486;6.332;2023-04-03T13:09:04;3.37;;;1.00;;
75639;SDS011;64233;51.486;6.332;2023-04-03T13:11:42;1.23;;;0.57;;
75639;SDS011;64233;51.486;6.332;2023-04-03T13:14:14;1.13;;;0.63;;
75639;SDS011;64233;51.486;6.332;2023-04-03T13:16:52;2.22;;;0.70;;
75639;SDS011;64233;51.486;6.332;2023-04-03T13:19:22;2.70;;;1.10;;
75639;SDS011;64233;51.486;6.332;2023-04-03T13:21:50;1.65;;;0.90;;
75639;SDS011;64233;51.486;6.332;2023-04-03T13:24:21;2.03;;;0.98;;
75639;SDS011;64233;51.486;6.332;2023-04-03T13:26:47;0.65;;;0.60;;
75639;SDS011;64233;51.486;6.332;2023-04-03T13:29:23;1.10;;;0.80;;
75639;SDS011;64233;51.486;6.332;2023-04-03T13:31:53;2.28;;;1.35;;
75639;SDS011;64233;51.486;6.332;2023-04-03T13:34:20;2.00;;;1.33;;
75639;SDS011;64233;51.486;6.332;2023-04-03T13:41:42;2.00;;;0.93;;
75639;SDS011;64233;51.486;6.332;2023-04-03T13:46:51;2.53;;;1.17;;
75639;SDS011;64233;51.486;6.332;2023-04-03T13:51:52;2.40;;;1.30;;
75639;SDS011;64233;51.486;6.332;2023-04-03T13:54:22;3.42;;;1.00;;
75639;SDS011;64233;51.486;6.332;2023-04-03T13:56:53;1.70;;;1.10;;
75639;SDS011;64233;51.486;6.332;2023-04-03T13:59:25;1.15;;;0.63;;
75639;SDS011;64233;51.486;6.332;2023-04-03T14:04:30;2.50;;;0.85;;
75639;SDS011;64233;51.486;6.332;2023-04-03T14:06:57;4.85;;;1.30;;
75639;SDS011;64233;51.486;6.332;2023-04-03T14:09:23;1.88;;;1.33;;
75639;SDS011;64233;51.486;6.332;2023-04-03T14:11:53;1.55;;;0.80;;
75639;SDS011;64233;51.486;6.332;2023-04-03T14:14:27;1.02;;;0.55;;
75639;SDS011;64233;51.486;6.332;2023-04-03T14:17:03;0.95;;;0.88;;
75639;SDS011;64233;51.486;6.332;2023-04-03T14:19:38;1.42;;;0.70;;
75639;SDS011;64233;51.486;6.332;2023-04-03T14:22:15;1.67;;;0.60;;
75639;SDS011;64233;51.486;6.332;2023-04-03T14:24:47;5.13;;;2.13;;
75639;SDS011;64233;51.486;6.332;2023-04-03T14:27:25;4.57;;;1.35;;
75639;SDS011;64233;51.486;6.332;2023-04-03T14:29:53;0.88;;;0.73;;
75639;SDS011;64233;51.486;6.332;2023-04-03T14:32:20;4.53;;;0.80;;
75639;SDS011;64233;51.486;6.332;2023-04-03T14:34:47;1.65;;;0.80;;
75639;SDS011;64233;51.486;6.332;2023-04-03T14:37:15;1.85;;;0.75;;
75639;SDS011;64233;51.486;6.332;2023-04-03T14:39:43;1.00;;;0.73;;
75639;SDS011;64233;51.486;6.332;2023-04-03T14:42:11;0.60;;;0.50;;
75639;SDS011;64233;51.486;6.332;2023-04-03T14:44:43;2.67;;;0.90;;
75639;SDS011;64233;51.486;6.332;2023-04-03T14:47:10;2.33;;;0.25;;
75639;SDS011;64233;51.486;6.332;2023-04-03T14:49:36;1.48;;;0.68;;
75639;SDS011;64233;51.486;6.332;2023-04-03T14:52:02;0.35;;;0.35;;
75639;SDS011;64233;51.486;6.332;2023-04-03T14:54:27;1.25;;;0.60;;
75639;SDS011;64233;51.486;6.332;2023-04-03T14:56:54;2.17;;;0.63;;
75639;SDS011;64233;51.486;6.332;2023-04-03T14:59:20;1.85;;;0.50;;
75639;SDS011;64233;51.486;6.332;2023-04-03T15:01:46;1.98;;;0.73;;
75639;SDS011;64233;51.486;6.332;2023-04-03T15:04:16;3.88;;;1.15;;
75639;SDS011;64233;51.486;6.332;2023-04-03T15:06:43;0.95;;;0.60;;
75639;SDS011;64233;51.486;6.332;2023-04-03T15:09:12;3.45;;;1.75;;
75639;SDS011;64233;51.486;6.332;2023-04-03T15:11:52;5.10;;;1.08;;
75639;SDS011;64233;51.486;6.332;2023-04-03T15:14:18;4.13;;;1.27;;
75639;SDS011;64233;51.486;6.332;2023-04-03T15:16:43;0.45;;;0.45;;
75639;SDS011;64233;51.486;6.332;2023-04-03T15:19:09;1.17;;;0.73;;
75639;SDS011;64233;51.486;6.332;2023-04-03T15:21:35;1.27;;;0.60;;
75639;SDS011;64233;51.486;6.332;2023-04-03T15:24:01;0.80;;;0.40;;
75639;SDS011;64233;51.486;6.332;2023-04-03T15:26:26;1.23;;;0.70;;
75639;SDS011;64233;51.486;6.332;2023-04-03T15:28:51;0.50;;;0.40;;
75639;SDS011;64233;51.486;6.332;2023-04-03T15:31:17;1.30;;;0.90;;
75639;SDS011;64233;51.486;6.332;2023-04-03T15:33:42;5.55;;;1.13;;
75639;SDS011;64233;51.486;6.332;2023-04-03T15:36:07;2.13;;;0.95;;
75639;SDS011;64233;51.486;6.332;2023-04-03T15:38:33;4.05;;;1.00;;
75639;SDS011;64233;51.486;6.332;2023-04-03T15:40:59;0.65;;;0.65;;
75639;SDS011;64233;51.486;6.332;2023-04-03T15:43:25;1.00;;;0.70;;
75639;SDS011;64233;51.486;6.332;2023-04-03T15:45:50;1.10;;;0.60;;
75639;SDS011;64233;51.486;6.332;2023-04-03T15:48:16;1.33;;;0.85;;
75639;SDS011;64233;51.486;6.332;2023-04-03T15:50:42;0.63;;;0.60;;
75639;SDS011;64233;51.486;6.332;2023-04-03T15:53:07;0.65;;;0.65;;
75639;SDS011;64233;51.486;6.332;2023-04-03T15:55:34;1.48;;;0.80;;
75639;SDS011;64233;51.486;6.332;2023-04-03T15:58:00;0.93;;;0.50;;
75639;SDS011;64233;51.486;6.332;2023-04-03T16:00:27;0.82;;;0.68;;
75639;SDS011;64233;51.486;6.332;2023-04-03T16:02:55;2.20;;;0.75;;
75639;SDS011;64233;51.486;6.332;2023-04-03T16:05:24;0.40;;;0.40;;
75639;SDS011;64233;51.486;6.332;2023-04-03T16:07:50;2.90;;;0.85;;
75639;SDS011;64233;51.486;6.332;2023-04-03T16:10:16;0.60;;;0.60;;
75639;SDS011;64233;51.486;6.332;2023-04-03T16:12:43;1.08;;;0.70;;
75639;SDS011;64233;51.486;6.332;2023-04-03T16:15:09;1.95;;;0.77;;
75639;SDS011;64233;51.486;6.332;2023-04-03T16:17:35;1.63;;;1.05;;
75639;SDS011;64233;51.486;6.332;2023-04-03T16:20:06;2.55;;;0.70;;
75639;SDS011;64233;51.486;6.332;2023-04-03T16:22:33;0.43;;;0.43;;
75639;SDS011;64233;51.486;6.332;2023-04-03T16:24:59;1.45;;;0.60;;
75639;SDS011;64233;51.486;6.332;2023-04-03T16:27:24;0.70;;;0.70;;
75639;SDS011;64233;51.486;6.332;2023-04-03T16:29:54;0.60;;;0.40;;
75639;SDS011;64233;51.486;6.332;2023-04-03T16:32:20;0.80;;;0.63;;
75639;SDS011;64233;51.486;6.332;2023-04-03T16:34:45;1.23;;;1.08;;
75639;SDS011;64233;51.486;6.332;2023-04-03T16:37:11;2.63;;;0.68;;
75639;SDS011;64233;51.486;6.332;2023-04-03T16:39:36;3.63;;;1.25;;
75639;SDS011;64233;51.486;6.332;2023-04-03T16:42:01;0.57;;;0.35;;
75639;SDS011;64233;51.486;6.332;2023-04-03T16:44:27;0.80;;;0.60;;